AirNav   Pilot Hours Calculator
 
 539 users online  

41TA Circle P Ranch Airport
Glen Rose, Texas, USA

GOING TO GLEN ROSE?


FAA INFORMATION EFFECTIVE 17 JUNE 2021

Location

FAA Identifier: 41TA
Lat/Long: 32-14-14.3500N 097-52-14.3000W
32-14.239167N 097-52.238333W
32.2373194,-97.8706389
(estimated)
Elevation: 800 ft. / 244 m (estimated)
Variation: 07E (1985)
From city: 7 miles W of GLEN ROSE, TX
Time zone: UTC -5 (UTC -6 during Standard Time)
Zip code: 76043

Airport Operations

Airport use: Private use. Permission required prior to landing
Activation date: 05/1982
Control tower: no
ARTCC: FORT WORTH CENTER
FSS: FORT WORTH FLIGHT SERVICE STATION
Attendance: UNATNDD
Wind indicator: no
Segmented circle: no

Airport Communications

WX AWOS-3 at GDJ (13 nm N): 118.925 (817-573-7514)
WX AWOS-3 at SEP (16 nm W): 118.075 (254-965-8672)

Nearby radio navigation aids

VOR radial/distance  VOR name  Freq  Var
MQPr159/30.0MILLSAP VORTAC117.7009E

Airport Services

Runway Information

Runway 3/21

Dimensions: 2700 x 80 ft. / 823 x 24 m
Surface: turf
RUNWAY 3  RUNWAY 21
Traffic pattern: leftleft

Airport Ownership and Management from official FAA records

Ownership: Privately-owned
Owner: AL PARKER
RT 2 CIRCLE P RANCH
BLUFF DALE, TX 76433
Phone 817-823-6673
Manager: AL PARKER
RT 2 CIRCLE P RANCH
BLUFF DALE, TX 76433
Phone 817-573-2912

Additional Remarks

FOR CD CTC FORT WORTH ARTCC AT 817-858-7584.

Instrument Procedures

There are no published instrument procedures at 41TA.

Some nearby airports with instrument procedures:

KGDJ - Granbury Regional Airport (13 nm N)
KSEP - Stephenville Clark Regional Airport (16 nm W)
KCPT - Cleburne Regional Airport (23 nm E)
50F - Bourland Field Airport (25 nm NE)
KWEA - Parker County Airport (32 nm N)
 
Loc | Ops | Rwys | IFR | FBO | Links
Com | Nav | Svcs | Stats | Notes

City of Fort Worth
 
Area around 41TA (Circle P Ranch Airport)
 
Road maps at: MapQuest Bing Google
 
Aerial photo
No photo
 
Sectional chart

 
Airport distance calculator
Flying to Circle P Ranch Airport? Find the distance to fly.

From to 41TA

Sunrise and sunset
Times for 25-Jun-2021
 Local
(UTC-5)
 Zulu
(UTC)
Morning civil twilight05:5910:59
Sunrise06:2711:27
Sunset20:4101:41
Evening civil twilight21:0902:09

Current date and time
Zulu (UTC)  25-Jun-2021 09:49:27
Local (UTC-5)  25-Jun-2021 04:49:27
 
METAR
KGDJ 
13nm N 
AWOS-3 118.925 817-573-7514
250935Z AUTO 16008KT 10SM CLR 27/23 A2994 RMK AO2 T02700226
KSEP 
15nm W 
250935Z AUTO 17006KT 10SM CLR 25/22 A2999 RMK AO2 T02470217
KCPT 
23nm E 
250935Z AUTO 17009KT 10SM CLR 25/24 A2995 RMK A01
TAF
KNFW 
38nm NE 
2507/2607 18012G20KT 9999 FEW020 QNH2987INS BECMG 2513/2515 19013G21KT 9999 SCT020 QNH2975INS BECMG 2522/2600 17012KT 9999 FEW050 QNH2972INS AUTOMATED SENSOR METWATCH 2507 TIL 2511 T25/2513Z T36/2523Z FN00204
KFTW 
44nm NE 
250525Z 2506/2606 16015KT P6SM FEW300 FM251200 19014KT P6SM SCT022 TEMPO 2512/2516 BKN022 FM251600 18017KT P6SM SCT050
KGKY 
47nm NE 
250525Z 2506/2606 16015KT P6SM FEW300 FM251200 19014KT P6SM BKN018 FM251600 18017KT P6SM SCT050
NOTAMs
Click for the latest NOTAMs
NOTAMs are issued by the DoD/FAA and will open in a separate window not controlled by AirNav.

 

 
 

Would you like to see your business listed on this page?

 If your business provides an interesting product or service to pilots, flight crews, aircraft, or users of the Circle P Ranch Airport, you should consider listing it here.  To start the listing process, click on the button below
 
Add a business
 

Other Pages about Circle P Ranch Airport

Update a link
 
Copyright © AirNav, LLC. All rights reserved. Privacy Policy  Contact